Naval Academy, Maryland
Current Conditions -  °F | °C
As of 6:54 AM on Friday 21 Nov 2014 (Local Time) from KNAK Reporting Station
Clear Clear  
Wind Chill: 22°   Ceiling: Unl
Heat Index: 31°   Visibility: 10mi
Dew Point: 12°   Wind: 12mph
Humidity: 46%   Direction: 300°WNW
Pressure: 30.33"   Gusts: NA
Location:  38.9898°N, 76.4639°W
Report Text: KNAK 211154Z AUTO 30010KT 10SM CLR M01/M11 A3033 RMK AO2 SLP273 T10061111 10022 21006 51036 $
Loading
Personal Weather Stations






























Interactive Weather Map New forecast layout! Learn more

10-Day Weather Forecast

Advertisements
Track Severe Weather on mobile